sensor_id;sensor_type;location;lat;lon;timestamp;pressure;altitude;pressure_sealevel;temperature;humidity
59531;BME280;45349;48.692;8.186;2022-10-15T00:02:26;97997.19;;;15.37;100.00
59531;BME280;45349;48.692;8.186;2022-10-15T00:04:52;98012.13;;;15.36;100.00
59531;BME280;45349;48.692;8.186;2022-10-15T00:07:19;98010.13;;;15.38;100.00
59531;BME280;45349;48.692;8.186;2022-10-15T00:09:45;98010.13;;;15.31;100.00
59531;BME280;45349;48.692;8.186;2022-10-15T00:12:12;98012.94;;;15.30;100.00
59531;BME280;45349;48.692;8.186;2022-10-15T00:14:39;98005.66;;;15.25;100.00
59531;BME280;45349;48.692;8.186;2022-10-15T00:17:06;98012.69;;;15.25;100.00
59531;BME280;45349;48.692;8.186;2022-10-15T00:19:33;98014.09;;;15.20;100.00
59531;BME280;45349;48.692;8.186;2022-10-15T00:22:00;98017.13;;;15.17;100.00
59531;BME280;45349;48.692;8.186;2022-10-15T00:24:27;98019.75;;;15.17;100.00
59531;BME280;45349;48.692;8.186;2022-10-15T00:26:53;98014.31;;;15.19;100.00
59531;BME280;45349;48.692;8.186;2022-10-15T00:29:20;98010.69;;;15.20;100.00
59531;BME280;45349;48.692;8.186;2022-10-15T00:31:49;98030.88;;;15.19;100.00
59531;BME280;45349;48.692;8.186;2022-10-15T00:34:17;98020.59;;;15.25;100.00
59531;BME280;45349;48.692;8.186;2022-10-15T00:36:44;98016.72;;;15.20;100.00
59531;BME280;45349;48.692;8.186;2022-10-15T00:39:10;98028.88;;;15.22;100.00
59531;BME280;45349;48.692;8.186;2022-10-15T00:41:40;98014.72;;;15.23;100.00
59531;BME280;45349;48.692;8.186;2022-10-15T00:47:14;98015.94;;;15.20;100.00
59531;BME280;45349;48.692;8.186;2022-10-15T00:49:50;98009.88;;;15.26;100.00
59531;BME280;45349;48.692;8.186;2022-10-15T00:52:26;98006.88;;;15.29;100.00
59531;BME280;45349;48.692;8.186;2022-10-15T00:55:00;98022.44;;;15.31;100.00
59531;BME280;45349;48.692;8.186;2022-10-15T00:57:30;98021.63;;;15.30;100.00
59531;BME280;45349;48.692;8.186;2022-10-15T01:00:01;98025.91;;;15.31;100.00
59531;BME280;45349;48.692;8.186;2022-10-15T01:02:29;98020.81;;;15.30;100.00
59531;BME280;45349;48.692;8.186;2022-10-15T01:04:58;98028.53;;;15.31;100.00
59531;BME280;45349;48.692;8.186;2022-10-15T01:07:24;98027.50;;;15.32;100.00
59531;BME280;45349;48.692;8.186;2022-10-15T01:09:51;98029.75;;;15.35;100.00
59531;BME280;45349;48.692;8.186;2022-10-15T01:12:23;98028.53;;;15.38;100.00
59531;BME280;45349;48.692;8.186;2022-10-15T01:15:00;98014.78;;;15.36;100.00
59531;BME280;45349;48.692;8.186;2022-10-15T01:17:36;98024.06;;;15.32;100.00
59531;BME280;45349;48.692;8.186;2022-10-15T01:20:22;98027.50;;;15.32;100.00
59531;BME280;45349;48.692;8.186;2022-10-15T01:23:10;98014.78;;;15.36;100.00
59531;BME280;45349;48.692;8.186;2022-10-15T01:25:47;98031.38;;;15.37;100.00
59531;BME280;45349;48.692;8.186;2022-10-15T01:28:25;98017.63;;;15.34;100.00
59531;BME280;45349;48.692;8.186;2022-10-15T01:30:57;98014.16;;;15.34;100.00
59531;BME280;45349;48.692;8.186;2022-10-15T01:33:31;98022.03;;;15.34;100.00
59531;BME280;45349;48.692;8.186;2022-10-15T01:36:09;98015.16;;;15.33;100.00
59531;BME280;45349;48.692;8.186;2022-10-15T01:38:45;98013.94;;;15.29;100.00
59531;BME280;45349;48.692;8.186;2022-10-15T01:41:17;98004.03;;;15.31;100.00
59531;BME280;45349;48.692;8.186;2022-10-15T01:43:56;98025.69;;;15.33;100.00
59531;BME280;45349;48.692;8.186;2022-10-15T01:47:01;98026.13;;;15.37;100.00
59531;BME280;45349;48.692;8.186;2022-10-15T01:49:30;98011.75;;;15.39;100.00
59531;BME280;45349;48.692;8.186;2022-10-15T01:52:05;98004.06;;;15.44;100.00
59531;BME280;45349;48.692;8.186;2022-10-15T01:54:35;98032.41;;;15.42;100.00
59531;BME280;45349;48.692;8.186;2022-10-15T01:57:03;98026.28;;;15.35;100.00
59531;BME280;45349;48.692;8.186;2022-10-15T01:59:32;98024.88;;;15.32;100.00
59531;BME280;45349;48.692;8.186;2022-10-15T02:02:00;98025.28;;;15.29;100.00
59531;BME280;45349;48.692;8.186;2022-10-15T02:04:29;98027.28;;;15.27;100.00
59531;BME280;45349;48.692;8.186;2022-10-15T02:07:00;98034.56;;;15.25;100.00
59531;BME280;45349;48.692;8.186;2022-10-15T02:09:35;98035.34;;;15.26;100.00
59531;BME280;45349;48.692;8.186;2022-10-15T02:12:11;98020.41;;;15.26;100.00
59531;BME280;45349;48.692;8.186;2022-10-15T02:14:48;98053.16;;;15.24;100.00
59531;BME280;45349;48.692;8.186;2022-10-15T02:17:24;98050.72;;;15.22;100.00
59531;BME280;45349;48.692;8.186;2022-10-15T02:19:57;98055.38;;;15.20;100.00
59531;BME280;45349;48.692;8.186;2022-10-15T02:22:30;98049.66;;;15.16;100.00
59531;BME280;45349;48.692;8.186;2022-10-15T02:25:03;98073.72;;;15.13;100.00
59531;BME280;45349;48.692;8.186;2022-10-15T02:27:31;98061.97;;;15.09;100.00
59531;BME280;45349;48.692;8.186;2022-10-15T02:30:01;98050.84;;;15.07;100.00
59531;BME280;45349;48.692;8.186;2022-10-15T02:32:30;98065.81;;;15.07;100.00
59531;BME280;45349;48.692;8.186;2022-10-15T02:34:58;98053.66;;;15.05;100.00
59531;BME280;45349;48.692;8.186;2022-10-15T02:37:27;98057.09;;;15.06;100.00
59531;BME280;45349;48.692;8.186;2022-10-15T02:39:54;98063.81;;;15.09;100.00
59531;BME280;45349;48.692;8.186;2022-10-15T02:42:22;98050.44;;;15.10;100.00
59531;BME280;45349;48.692;8.186;2022-10-15T02:44:49;98054.69;;;15.11;100.00
59531;BME280;45349;48.692;8.186;2022-10-15T02:47:16;98057.72;;;15.08;100.00
59531;BME280;45349;48.692;8.186;2022-10-15T02:49:44;98044.78;;;15.07;100.00
59531;BME280;45349;48.692;8.186;2022-10-15T02:52:11;98070.84;;;15.08;100.00
59531;BME280;45349;48.692;8.186;2022-10-15T02:54:39;98069.44;;;15.05;100.00
59531;BME280;45349;48.692;8.186;2022-10-15T02:57:06;98064.38;;;15.04;100.00
59531;BME280;45349;48.692;8.186;2022-10-15T02:59:32;98065.19;;;15.04;100.00
59531;BME280;45349;48.692;8.186;2022-10-15T03:01:59;98065.81;;;15.07;100.00
59531;BME280;45349;48.692;8.186;2022-10-15T03:04:27;98072.31;;;15.11;100.00
59531;BME280;45349;48.692;8.186;2022-10-15T03:06:55;98046.44;;;15.14;100.00
59531;BME280;45349;48.692;8.186;2022-10-15T03:09:21;98066.44;;;15.15;100.00
59531;BME280;45349;48.692;8.186;2022-10-15T03:11:48;98063.25;;;15.20;100.00
59531;BME280;45349;48.692;8.186;2022-10-15T03:14:16;98061.63;;;15.19;100.00
59531;BME280;45349;48.692;8.186;2022-10-15T03:16:42;98051.28;;;15.17;100.00
59531;BME280;45349;48.692;8.186;2022-10-15T03:19:10;98046.44;;;15.14;100.00
59531;BME280;45349;48.692;8.186;2022-10-15T03:21:37;98059.19;;;15.17;100.00
59531;BME280;45349;48.692;8.186;2022-10-15T03:24:10;98059.41;;;15.23;100.00
59531;BME280;45349;48.692;8.186;2022-10-15T03:26:37;98049.72;;;15.23;100.00
59531;BME280;45349;48.692;8.186;2022-10-15T03:29:04;98042.63;;;15.24;100.00
59531;BME280;45349;48.692;8.186;2022-10-15T03:31:36;98043.47;;;15.31;100.00
59531;BME280;45349;48.692;8.186;2022-10-15T03:34:03;98054.00;;;15.31;100.00
59531;BME280;45349;48.692;8.186;2022-10-15T03:36:30;98064.72;;;15.29;100.00
59531;BME280;45349;48.692;8.186;2022-10-15T03:38:58;98056.00;;;15.29;100.00
59531;BME280;45349;48.692;8.186;2022-10-15T03:41:26;98055.00;;;15.30;100.00
59531;BME280;45349;48.692;8.186;2022-10-15T03:43:53;98050.75;;;15.29;100.00
59531;BME280;45349;48.692;8.186;2022-10-15T03:46:20;98069.75;;;15.31;100.00
59531;BME280;45349;48.692;8.186;2022-10-15T03:48:49;98066.72;;;15.27;100.00
59531;BME280;45349;48.692;8.186;2022-10-15T03:51:16;98071.38;;;15.32;100.00
59531;BME280;45349;48.692;8.186;2022-10-15T03:53:44;98070.22;;;15.34;100.00
59531;BME280;45349;48.692;8.186;2022-10-15T03:56:10;98058.44;;;15.30;100.00
59531;BME280;45349;48.692;8.186;2022-10-15T03:58:40;98078.44;;;15.25;100.00
59531;BME280;45349;48.692;8.186;2022-10-15T04:01:13;98072.94;;;15.19;100.00
59531;BME280;45349;48.692;8.186;2022-10-15T04:03:41;98077.03;;;15.22;100.00
59531;BME280;45349;48.692;8.186;2022-10-15T04:06:08;98073.78;;;15.20;100.00
59531;BME280;45349;48.692;8.186;2022-10-15T04:08:35;98079.22;;;15.18;100.00
59531;BME280;45349;48.692;8.186;2022-10-15T04:11:17;98086.91;;;15.20;100.00
59531;BME280;45349;48.692;8.186;2022-10-15T04:13:48;98097.44;;;15.20;100.00
59531;BME280;45349;48.692;8.186;2022-10-15T04:16:15;98088.34;;;15.23;100.00
59531;BME280;45349;48.692;8.186;2022-10-15T04:18:43;98080.22;;;15.17;100.00
59531;BME280;45349;48.692;8.186;2022-10-15T04:21:10;98094.19;;;15.18;100.00
59531;BME280;45349;48.692;8.186;2022-10-15T04:23:39;98088.69;;;15.13;100.00
59531;BME280;45349;48.692;8.186;2022-10-15T04:26:28;98082.81;;;15.11;100.00
59531;BME280;45349;48.692;8.186;2022-10-15T04:29:00;98090.09;;;15.09;100.00
59531;BME280;45349;48.692;8.186;2022-10-15T04:31:27;98093.91;;;15.06;100.00
59531;BME280;45349;48.692;8.186;2022-10-15T04:33:59;98102.00;;;15.04;100.00
59531;BME280;45349;48.692;8.186;2022-10-15T04:36:26;98108.81;;;14.99;100.00
59531;BME280;45349;48.692;8.186;2022-10-15T04:39:05;98116.44;;;14.94;100.00
59531;BME280;45349;48.692;8.186;2022-10-15T04:41:39;98119.91;;;14.94;100.00
59531;BME280;45349;48.692;8.186;2022-10-15T04:44:10;98119.66;;;14.89;100.00
59531;BME280;45349;48.692;8.186;2022-10-15T04:46:37;98119.03;;;14.87;100.00
59531;BME280;45349;48.692;8.186;2022-10-15T04:49:23;98112.19;;;14.93;100.00
59531;BME280;45349;48.692;8.186;2022-10-15T04:51:50;98110.19;;;14.95;100.00
59531;BME280;45349;48.692;8.186;2022-10-15T04:54:26;98119.69;;;14.96;100.00
59531;BME280;45349;48.692;8.186;2022-10-15T04:56:56;98117.47;;;14.93;100.00
59531;BME280;45349;48.692;8.186;2022-10-15T04:59:24;98112.81;;;14.95;100.00
59531;BME280;45349;48.692;8.186;2022-10-15T05:02:26;98121.53;;;14.95;100.00
59531;BME280;45349;48.692;8.186;2022-10-15T05:05:06;98119.91;;;14.94;100.00
59531;BME280;45349;48.692;8.186;2022-10-15T05:07:43;98125.78;;;14.96;100.00
59531;BME280;45349;48.692;8.186;2022-10-15T05:10:10;98136.91;;;14.98;100.00
59531;BME280;45349;48.692;8.186;2022-10-15T05:12:36;98140.09;;;14.94;100.00
59531;BME280;45349;48.692;8.186;2022-10-15T05:15:07;98135.59;;;14.87;100.00
59531;BME280;45349;48.692;8.186;2022-10-15T05:17:34;98137.63;;;14.85;100.00
59531;BME280;45349;48.692;8.186;2022-10-15T05:20:02;98144.69;;;14.85;100.00
59531;BME280;45349;48.692;8.186;2022-10-15T05:22:29;98154.78;;;14.81;100.00
59531;BME280;45349;48.692;8.186;2022-10-15T05:24:58;98145.28;;;14.80;100.00
59531;BME280;45349;48.692;8.186;2022-10-15T05:27:33;98151.34;;;14.81;100.00
59531;BME280;45349;48.692;8.186;2022-10-15T05:30:03;98153.38;;;14.85;100.00
59531;BME280;45349;48.692;8.186;2022-10-15T05:32:37;98155.41;;;14.83;100.00
59531;BME280;45349;48.692;8.186;2022-10-15T05:35:08;98155.97;;;14.79;100.00
59531;BME280;45349;48.692;8.186;2022-10-15T05:37:50;98149.72;;;14.80;100.00
59531;BME280;45349;48.692;8.186;2022-10-15T05:40:17;98154.34;;;14.78;100.00
59531;BME280;45349;48.692;8.186;2022-10-15T05:42:52;98155.72;;;14.73;100.00
59531;BME280;45349;48.692;8.186;2022-10-15T05:45:19;98159.97;;;14.74;100.00
59531;BME280;45349;48.692;8.186;2022-10-15T05:47:47;98151.91;;;14.76;100.00
59531;BME280;45349;48.692;8.186;2022-10-15T05:50:16;98156.16;;;14.77;100.00
59531;BME280;45349;48.692;8.186;2022-10-15T05:52:46;98151.91;;;14.76;100.00
59531;BME280;45349;48.692;8.186;2022-10-15T05:55:18;98155.53;;;14.75;100.00
59531;BME280;45349;48.692;8.186;2022-10-15T05:57:45;98155.72;;;14.73;100.00
59531;BME280;45349;48.692;8.186;2022-10-15T06:00:13;98156.59;;;14.81;100.00
59531;BME280;45349;48.692;8.186;2022-10-15T06:02:40;98158.47;;;14.87;100.00
59531;BME280;45349;48.692;8.186;2022-10-15T06:05:08;98144.50;;;14.86;100.00
59531;BME280;45349;48.692;8.186;2022-10-15T06:07:34;98155.44;;;14.90;100.00
59531;BME280;45349;48.692;8.186;2022-10-15T06:10:04;98157.06;;;14.91;100.00
59531;BME280;45349;48.692;8.186;2022-10-15T06:12:32;98167.22;;;14.94;100.00
59531;BME280;45349;48.692;8.186;2022-10-15T06:14:59;98167.44;;;14.99;100.00
59531;BME280;45349;48.692;8.186;2022-10-15T06:17:25;98166.69;;;15.05;100.00
59531;BME280;45349;48.692;8.186;2022-10-15T06:19:52;98166.53;;;15.14;100.00
59531;BME280;45349;48.692;8.186;2022-10-15T06:22:20;98164.31;;;15.11;100.00
59531;BME280;45349;48.692;8.186;2022-10-15T06:24:46;98167.78;;;15.18;100.00
59531;BME280;45349;48.692;8.186;2022-10-15T06:27:13;98176.31;;;15.20;100.00
59531;BME280;45349;48.692;8.186;2022-10-15T06:29:39;98180.78;;;15.26;100.00
59531;BME280;45349;48.692;8.186;2022-10-15T06:32:08;98186.00;;;15.19;100.00
59531;BME280;45349;48.692;8.186;2022-10-15T06:34:38;98191.63;;;15.16;100.00
59531;BME280;45349;48.692;8.186;2022-10-15T06:37:04;98205.16;;;15.13;100.00
59531;BME280;45349;48.692;8.186;2022-10-15T06:39:32;98197.59;;;15.03;100.00
59531;BME280;45349;48.692;8.186;2022-10-15T06:41:59;98195.75;;;14.97;100.00
59531;BME280;45349;48.692;8.186;2022-10-15T06:44:36;98199.63;;;15.01;100.00
59531;BME280;45349;48.692;8.186;2022-10-15T06:47:03;98197.00;;;15.01;100.00
59531;BME280;45349;48.692;8.186;2022-10-15T06:49:30;98207.13;;;15.04;100.00
59531;BME280;45349;48.692;8.186;2022-10-15T06:51:58;98199.91;;;15.13;100.00
59531;BME280;45349;48.692;8.186;2022-10-15T06:54:25;98200.09;;;15.12;100.00
59531;BME280;45349;48.692;8.186;2022-10-15T06:56:53;98207.59;;;15.15;100.00
59531;BME280;45349;48.692;8.186;2022-10-15T06:59:19;98211.41;;;15.12;100.00
59531;BME280;45349;48.692;8.186;2022-10-15T07:01:46;98221.50;;;15.09;100.00
59531;BME280;45349;48.692;8.186;2022-10-15T07:04:13;98218.13;;;15.15;100.00
59531;BME280;45349;48.692;8.186;2022-10-15T07:06:39;98210.41;;;15.13;100.00
59531;BME280;45349;48.692;8.186;2022-10-15T07:09:06;98215.13;;;15.18;100.00
59531;BME280;45349;48.692;8.186;2022-10-15T07:11:33;98216.06;;;15.10;100.00
59531;BME280;45349;48.692;8.186;2022-10-15T07:14:01;98226.31;;;15.05;100.00
59531;BME280;45349;48.692;8.186;2022-10-15T07:16:27;98214.50;;;14.94;100.00
59531;BME280;45349;48.692;8.186;2022-10-15T07:18:54;98215.25;;;15.10;100.00
59531;BME280;45349;48.692;8.186;2022-10-15T07:21:20;98211.63;;;15.11;100.00
59531;BME280;45349;48.692;8.186;2022-10-15T07:23:47;98209.78;;;15.11;100.00
59531;BME280;45349;48.692;8.186;2022-10-15T07:26:13;98207.59;;;15.15;100.00
59531;BME280;45349;48.692;8.186;2022-10-15T07:28:40;98207.03;;;15.19;100.00
59531;BME280;45349;48.692;8.186;2022-10-15T07:31:08;98209.50;;;15.28;100.00
59531;BME280;45349;48.692;8.186;2022-10-15T07:33:34;98222.38;;;15.44;100.00
59531;BME280;45349;48.692;8.186;2022-10-15T07:36:02;98215.97;;;15.54;100.00
59531;BME280;45349;48.692;8.186;2022-10-15T07:38:30;98216.97;;;15.53;100.00
59531;BME280;45349;48.692;8.186;2022-10-15T07:40:57;98218.22;;;15.63;100.00
59531;BME280;45349;48.692;8.186;2022-10-15T07:43:25;98228.81;;;15.70;100.00
59531;BME280;45349;48.692;8.186;2022-10-15T07:45:52;98233.44;;;15.68;100.00
59531;BME280;45349;48.692;8.186;2022-10-15T07:48:20;98239.94;;;15.72;100.00
59531;BME280;45349;48.692;8.186;2022-10-15T07:50:52;98242.03;;;15.84;100.00
59531;BME280;45349;48.692;8.186;2022-10-15T07:53:18;98232.47;;;15.76;100.00
59531;BME280;45349;48.692;8.186;2022-10-15T07:55:48;98233.09;;;15.78;100.00
59531;BME280;45349;48.692;8.186;2022-10-15T07:58:15;98238.16;;;15.79;100.00
59531;BME280;45349;48.692;8.186;2022-10-15T08:00:42;98242.59;;;15.79;100.00
59531;BME280;45349;48.692;8.186;2022-10-15T08:03:08;98248.47;;;15.74;100.00
59531;BME280;45349;48.692;8.186;2022-10-15T08:05:36;98250.19;;;15.60;100.00
59531;BME280;45349;48.692;8.186;2022-10-15T08:08:03;98247.00;;;15.65;100.00
59531;BME280;45349;48.692;8.186;2022-10-15T08:10:30;98254.75;;;15.80;100.00
59531;BME280;45349;48.692;8.186;2022-10-15T08:12:56;98237.63;;;15.91;100.00
59531;BME280;45349;48.692;8.186;2022-10-15T08:15:23;98230.94;;;15.88;100.00
59531;BME280;45349;48.692;8.186;2022-10-15T08:17:49;98242.56;;;16.01;100.00
59531;BME280;45349;48.692;8.186;2022-10-15T08:20:17;98243.13;;;15.96;100.00
59531;BME280;45349;48.692;8.186;2022-10-15T08:22:45;98252.41;;;15.92;100.00
59531;BME280;45349;48.692;8.186;2022-10-15T08:25:11;98247.75;;;15.94;100.00
59531;BME280;45349;48.692;8.186;2022-10-15T08:27:38;98269.63;;;15.88;100.00
59531;BME280;45349;48.692;8.186;2022-10-15T08:30:05;98260.09;;;15.87;100.00
59531;BME280;45349;48.692;8.186;2022-10-15T08:32:32;98262.03;;;15.78;100.00
59531;BME280;45349;48.692;8.186;2022-10-15T08:34:59;98263.47;;;15.81;100.00
59531;BME280;45349;48.692;8.186;2022-10-15T08:37:29;98269.94;;;15.78;100.00
59531;BME280;45349;48.692;8.186;2022-10-15T08:39:57;98250.09;;;15.75;100.00
59531;BME280;45349;48.692;8.186;2022-10-15T08:42:28;98257.00;;;15.83;100.00
59531;BME280;45349;48.692;8.186;2022-10-15T08:44:58;98252.34;;;15.85;100.00
59531;BME280;45349;48.692;8.186;2022-10-15T08:47:31;98269.22;;;15.91;100.00
59531;BME280;45349;48.692;8.186;2022-10-15T08:50:02;98263.41;;;16.02;100.00
59531;BME280;45349;48.692;8.186;2022-10-15T08:52:38;98265.47;;;16.14;100.00
59531;BME280;45349;48.692;8.186;2022-10-15T08:55:10;98263.28;;;16.17;100.00
59531;BME280;45349;48.692;8.186;2022-10-15T08:57:42;98264.47;;;16.15;100.00
59531;BME280;45349;48.692;8.186;2022-10-15T09:00:14;98268.50;;;16.11;100.00
59531;BME280;45349;48.692;8.186;2022-10-15T09:02:49;98275.41;;;16.12;100.00
59531;BME280;45349;48.692;8.186;2022-10-15T09:05:26;98281.91;;;16.16;100.00
59531;BME280;45349;48.692;8.186;2022-10-15T09:08:01;98281.28;;;16.14;100.00
59531;BME280;45349;48.692;8.186;2022-10-15T09:10:38;98282.06;;;16.07;100.00
59531;BME280;45349;48.692;8.186;2022-10-15T09:13:10;98288.72;;;16.03;100.00
59531;BME280;45349;48.692;8.186;2022-10-15T09:15:45;98281.81;;;16.02;100.00
59531;BME280;45349;48.692;8.186;2022-10-15T09:18:17;98270.06;;;15.98;100.00
59531;BME280;45349;48.692;8.186;2022-10-15T09:20:46;98268.28;;;16.05;100.00
59531;BME280;45349;48.692;8.186;2022-10-15T09:23:16;98287.16;;;16.16;100.00
59531;BME280;45349;48.692;8.186;2022-10-15T09:25:50;98266.72;;;16.18;100.00
59531;BME280;45349;48.692;8.186;2022-10-15T09:28:20;98288.91;;;16.44;100.00
59531;BME280;45349;48.692;8.186;2022-10-15T09:30:52;98281.41;;;16.47;99.19
59531;BME280;45349;48.692;8.186;2022-10-15T09:33:29;98273.44;;;16.89;97.29
59531;BME280;45349;48.692;8.186;2022-10-15T09:36:07;98287.59;;;16.75;97.98
59531;BME280;45349;48.692;8.186;2022-10-15T09:38:41;98283.34;;;16.87;95.39
59531;BME280;45349;48.692;8.186;2022-10-15T09:41:20;98292.28;;;16.93;95.00
59531;BME280;45349;48.692;8.186;2022-10-15T09:43:51;98287.03;;;17.00;94.02
59531;BME280;45349;48.692;8.186;2022-10-15T09:46:20;98293.53;;;17.17;93.22
59531;BME280;45349;48.692;8.186;2022-10-15T09:48:51;98292.94;;;17.42;92.13
59531;BME280;45349;48.692;8.186;2022-10-15T09:51:24;98293.97;;;17.41;92.77
59531;BME280;45349;48.692;8.186;2022-10-15T09:53:59;98303.50;;;17.55;94.41
59531;BME280;45349;48.692;8.186;2022-10-15T09:56:31;98298.41;;;17.67;90.11
59531;BME280;45349;48.692;8.186;2022-10-15T09:59:01;98305.72;;;17.59;88.97
59531;BME280;45349;48.692;8.186;2022-10-15T10:01:30;98291.31;;;17.54;88.95
59531;BME280;45349;48.692;8.186;2022-10-15T10:04:10;98290.69;;;16.99;91.17
59531;BME280;45349;48.692;8.186;2022-10-15T10:06:43;98290.72;;;17.19;90.73
59531;BME280;45349;48.692;8.186;2022-10-15T10:09:16;98289.69;;;17.13;90.08
59531;BME280;45349;48.692;8.186;2022-10-15T10:11:48;98295.94;;;16.85;91.53
59531;BME280;45349;48.692;8.186;2022-10-15T10:14:22;98291.09;;;16.95;92.53
59531;BME280;45349;48.692;8.186;2022-10-15T10:17:06;98309.34;;;17.04;91.78
59531;BME280;45349;48.692;8.186;2022-10-15T10:19:33;98319.09;;;17.03;91.29
59531;BME280;45349;48.692;8.186;2022-10-15T10:22:05;98312.56;;;16.92;93.05
59531;BME280;45349;48.692;8.186;2022-10-15T10:24:36;98315.00;;;16.94;92.66
59531;BME280;45349;48.692;8.186;2022-10-15T10:27:18;98310.75;;;17.00;91.50
59531;BME280;45349;48.692;8.186;2022-10-15T10:29:50;98312.41;;;17.07;92.88
59531;BME280;45349;48.692;8.186;2022-10-15T10:32:20;98306.91;;;16.95;90.74
59531;BME280;45349;48.692;8.186;2022-10-15T10:34:47;98300.19;;;16.86;91.13
59531;BME280;45349;48.692;8.186;2022-10-15T10:37:14;98307.91;;;16.94;89.32
59531;BME280;45349;48.692;8.186;2022-10-15T10:39:41;98296.97;;;16.97;91.11
59531;BME280;45349;48.692;8.186;2022-10-15T10:42:25;98308.34;;;16.98;90.89
59531;BME280;45349;48.692;8.186;2022-10-15T10:44:52;98306.13;;;17.15;90.56
59531;BME280;45349;48.692;8.186;2022-10-15T10:47:20;98309.38;;;17.10;88.53
59531;BME280;45349;48.692;8.186;2022-10-15T10:49:53;98302.69;;;17.21;87.17
59531;BME280;45349;48.692;8.186;2022-10-15T10:52:24;98316.66;;;17.02;87.76
59531;BME280;45349;48.692;8.186;2022-10-15T10:54:57;98311.59;;;17.20;88.89
59531;BME280;45349;48.692;8.186;2022-10-15T10:57:34;98316.28;;;17.25;90.15
59531;BME280;45349;48.692;8.186;2022-10-15T11:00:06;98312.84;;;17.24;89.11
59531;BME280;45349;48.692;8.186;2022-10-15T11:02:33;98306.16;;;17.22;90.31
59531;BME280;45349;48.692;8.186;2022-10-15T11:05:05;98302.50;;;17.23;88.25
59531;BME280;45349;48.692;8.186;2022-10-15T11:07:36;98302.25;;;16.97;89.24
59531;BME280;45349;48.692;8.186;2022-10-15T11:10:11;98300.84;;;17.15;88.13
59531;BME280;45349;48.692;8.186;2022-10-15T11:12:53;98297.63;;;17.20;86.51
59531;BME280;45349;48.692;8.186;2022-10-15T11:15:30;98292.72;;;17.10;87.70
59531;BME280;45349;48.692;8.186;2022-10-15T11:18:19;98299.84;;;17.09;86.20
59531;BME280;45349;48.692;8.186;2022-10-15T11:20:55;98305.13;;;17.30;88.40
59531;BME280;45349;48.692;8.186;2022-10-15T11:23:36;98303.28;;;17.23;90.37
59531;BME280;45349;48.692;8.186;2022-10-15T11:26:18;98308.59;;;17.30;92.85
59531;BME280;45349;48.692;8.186;2022-10-15T11:29:07;98312.44;;;17.27;91.09
59531;BME280;45349;48.692;8.186;2022-10-15T11:31:42;98308.97;;;17.20;91.50
59531;BME280;45349;48.692;8.186;2022-10-15T11:34:26;98311.03;;;17.38;90.88
59531;BME280;45349;48.692;8.186;2022-10-15T11:37:04;98310.59;;;17.35;91.29
59531;BME280;45349;48.692;8.186;2022-10-15T11:39:44;98320.28;;;16.94;94.32
59531;BME280;45349;48.692;8.186;2022-10-15T11:42:16;98301.19;;;16.92;95.44
59531;BME280;45349;48.692;8.186;2022-10-15T11:44:59;98303.75;;;16.58;96.66
59531;BME280;45349;48.692;8.186;2022-10-15T11:47:37;98299.09;;;16.67;95.69
59531;BME280;45349;48.692;8.186;2022-10-15T11:50:18;98299.38;;;16.30;96.02
59531;BME280;45349;48.692;8.186;2022-10-15T11:52:59;98296.75;;;16.23;99.07
59531;BME280;45349;48.692;8.186;2022-10-15T11:55:34;98284.97;;;16.26;98.01
59531;BME280;45349;48.692;8.186;2022-10-15T11:58:10;98267.16;;;16.28;100.00
59531;BME280;45349;48.692;8.186;2022-10-15T12:00:41;98267.16;;;16.21;97.99
59531;BME280;45349;48.692;8.186;2022-10-15T12:03:14;98265.19;;;16.44;98.18
59531;BME280;45349;48.692;8.186;2022-10-15T12:05:45;98263.84;;;16.61;98.95
59531;BME280;45349;48.692;8.186;2022-10-15T12:08:14;98285.34;;;16.72;96.66
59531;BME280;45349;48.692;8.186;2022-10-15T12:10:56;98278.81;;;16.54;96.30
59531;BME280;45349;48.692;8.186;2022-10-15T12:13:31;98270.31;;;16.59;96.06
59531;BME280;45349;48.692;8.186;2022-10-15T12:16:11;98262.81;;;16.69;96.84
59531;BME280;45349;48.692;8.186;2022-10-15T12:18:43;98255.75;;;16.70;95.22
59531;BME280;45349;48.692;8.186;2022-10-15T12:21:32;98267.47;;;16.60;96.93
59531;BME280;45349;48.692;8.186;2022-10-15T12:23:59;98261.78;;;16.57;97.23
59531;BME280;45349;48.692;8.186;2022-10-15T12:26:31;98266.63;;;16.46;98.77
59531;BME280;45349;48.692;8.186;2022-10-15T12:29:03;98265.19;;;16.44;100.00
59531;BME280;45349;48.692;8.186;2022-10-15T12:31:45;98272.50;;;16.48;100.00
59531;BME280;45349;48.692;8.186;2022-10-15T12:34:26;98269.47;;;16.51;100.00
59531;BME280;45349;48.692;8.186;2022-10-15T12:37:01;98286.88;;;16.46;99.84
59531;BME280;45349;48.692;8.186;2022-10-15T12:39:28;98279.94;;;16.31;100.00
59531;BME280;45349;48.692;8.186;2022-10-15T12:41:55;98268.97;;;16.21;100.00
59531;BME280;45349;48.692;8.186;2022-10-15T12:44:24;98248.16;;;16.33;100.00
59531;BME280;45349;48.692;8.186;2022-10-15T12:46:54;98253.94;;;16.15;100.00
59531;BME280;45349;48.692;8.186;2022-10-15T12:49:58;98265.47;;;16.14;100.00
59531;BME280;45349;48.692;8.186;2022-10-15T12:52:51;98245.59;;;16.04;100.00
59531;BME280;45349;48.692;8.186;2022-10-15T12:55:22;98249.22;;;16.03;100.00
59531;BME280;45349;48.692;8.186;2022-10-15T12:57:51;98245.81;;;16.09;100.00
59531;BME280;45349;48.692;8.186;2022-10-15T13:03:24;98236.06;;;16.03;100.00
59531;BME280;45349;48.692;8.186;2022-10-15T13:05:52;98238.16;;;16.15;100.00
59531;BME280;45349;48.692;8.186;2022-10-15T13:08:32;98233.53;;;16.23;100.00
59531;BME280;45349;48.692;8.186;2022-10-15T13:10:59;98243.50;;;16.35;99.59
59531;BME280;45349;48.692;8.186;2022-10-15T13:13:28;98226.44;;;16.24;100.00
59531;BME280;45349;48.692;8.186;2022-10-15T13:15:57;98232.97;;;16.48;100.00
59531;BME280;45349;48.692;8.186;2022-10-15T13:18:28;98235.22;;;16.51;96.98
59531;BME280;45349;48.692;8.186;2022-10-15T13:20:56;98234.81;;;16.55;97.94